EST,Max TemperatureF,Mean TemperatureF,Min TemperatureF,Max Dew PointF,MeanDew PointF,Min DewpointF,Max Humidity, Mean Humidity, Min Humidity, Max Sea Level PressureIn, Mean Sea Level PressureIn, Min Sea Level PressureIn, Max VisibilityMiles, Mean VisibilityMiles, Min VisibilityMiles, Max Wind SpeedMPH, Mean Wind SpeedMPH, Max Gust SpeedMPH,PrecipitationIn, CloudCover, Events, WindDirDegrees
2012-12-1,46,40,33,43,35,24,100,85,59,30.58,30.53,30.46,10,10,5,13,9,,0.06,8,Rain-Snow,93
2012-12-2,57,52,48,54,50,44,97,90,74,30.44,30.29,30.11,10,10,9,15,11,23,0.01,5,,177
2012-12-3,59,44,30,52,44,29,100,85,58,30.29,30.15,30.07,10,9,0,18,10,30,0.00,3,Fog,261
2012-12-4,54,41,28,53,39,28,100,96,80,30.34,30.26,30.05,10,5,0,14,3,22,0.00,4,Fog,161
2012-12-5,57,47,37,55,41,21,97,72,47,30.09,29.96,29.89,10,9,7,22,14,32,0.03,4,Rain,282
2012-12-6,39,28,16,20,18,13,92,63,46,30.32,30.27,30.12,10,10,7,18,10,24,0.00,0,,343
2012-12-7,50,33,16,45,37,14,100,89,71,30.31,30.17,30.06,10,10,8,14,2,21,0.01,7,Rain,171
2012-12-8,57,52,46,57,51,46,100,99,93,30.05,29.93,29.83,10,5,0,13,4,21,0.32,8,Fog-Rain,249
2012-12-9,50,46,43,48,42,30,100,85,52,30.27,30.17,30.00,10,8,4,17,9,24,0.16,6,Rain,19
2012-12-10,60,53,46,61,56,45,100,99,88,30.09,29.73,29.53,10,4,1,23,14,31,1.70,8,Rain-Thunderstorm,201
2012-12-11,57,47,37,57,42,23,100,82,54,30.15,29.82,29.57,10,9,2,15,8,23,0.02,5,Rain,301
2012-12-12,39,31,23,24,22,20,88,67,53,30.43,30.32,30.16,10,10,10,16,9,22,0.00,0,,339
2012-12-13,45,33,19,29,25,18,96,75,49,30.45,30.39,30.31,10,10,4,9,5,,0.00,0,,6
2012-12-14,48,34,21,34,28,18,92,71,48,30.28,30.19,30.09,10,10,5,16,4,24,0.00,1,,274
2012-12-15,45,38,32,31,27,24,82,68,47,30.32,30.26,30.17,10,10,10,13,7,21,0.00,0,,9
2012-12-16,42,38,35,41,33,26,100,85,65,30.31,30.15,30.00,10,8,3,18,11,30,0.12,7,Rain,96
2012-12-17,48,45,42,48,46,42,100,98,93,29.98,29.87,29.73,7,4,2,21,13,25,0.29,8,Rain,67
2012-12-18,55,50,46,54,48,43,100,97,86,29.70,29.50,29.43,10,7,1,15,9,21,0.33,7,Rain,201
2012-12-19,46,42,39,43,33,30,89,67,56,29.99,29.65,29.45,10,10,10,24,14,34,0.01,7,,314
2012-12-20,43,40,36,36,33,30,87,77,66,30.18,30.12,30.01,10,10,10,15,9,21,0.00,5,Rain,11
2012-12-21,53,47,41,54,44,29,100,87,60,29.97,29.44,29.16,10,7,2,25,16,43,0.53,8,Rain,149
2012-12-22,41,37,33,36,26,18,93,65,47,29.67,29.44,29.29,10,10,5,24,13,37,0.07,7,Rain,281
2012-12-23,39,36,34,29,24,18,73,57,48,29.90,29.84,29.69,10,10,10,24,15,36,0.00,3,Snow,273
2012-12-24,39,34,28,32,23,21,86,64,49,30.07,30.02,29.91,10,10,10,12,5,16,0.00,1,Rain,306
2012-12-25,41,36,30,40,34,25,100,91,75,30.19,30.02,29.94,10,10,6,15,7,23,0.09,7,Rain,17
2012-12-26,39,31,23,38,31,22,96,82,63,30.28,30.11,29.83,10,9,5,29,13,39,0.22,5,Rain,64
2012-12-27,53,43,33,52,43,28,100,92,82,29.80,29.37,29.20,10,8,2,33,20,46,0.53,8,Rain-Snow,273
2012-12-28,37,31,25,31,24,20,92,70,53,30.02,29.84,29.61,10,9,2,22,14,33,0.00,3,Snow,312
2012-12-29,41,31,21,39,32,19,100,92,70,30.02,29.57,29.23,10,6,1,23,9,37,1.55,6,Rain-Snow,28
2012-12-30,33,29,24,34,23,12,100,75,60,29.98,29.63,29.31,10,9,2,28,20,40,0.02,4,Snow,312
2012-12-31,39,31,23,29,21,11,76,65,57,30.09,29.98,29.82,10,10,10,21,14,32,0.00,3,,276